Time;durP1;ratioP1;P1;durP2;ratioP2;P2;SDS_P1;SDS_P2;PMS_P1;PMS_P2;Temp;Humidity;BMP_temperature;BMP_pressure;BME280_temperature;BME280_humidity;BME280_pressure;Samples;Min_cycle;Max_cycle;Signal;HPM_P1;HPM_P2
2022/05/05 00:00:16;;;;;;;7.03;5.80;;;11.10;99.90;;;;;;4995040;28;20270;-63
2022/05/05 00:02:41;;;;;;;5.40;4.90;;;11.10;99.90;;;;;;4994444;28;20279;-63
2022/05/05 00:05:07;;;;;;;6.10;5.53;;;11.10;99.90;;;;;;4994431;28;20861;-63
2022/05/05 00:07:33;;;;;;;8.52;5.72;;;11.10;99.90;;;;;;4994330;28;20203;-63
2022/05/05 00:14:23;;;;;;;7.00;5.50;;;11.10;99.90;;;;;;4994443;28;20249;-62
2022/05/05 00:15:39;;;;;;;5.80;5.03;;;11.10;99.90;;;;;;4958116;28;20177;-63
2022/05/05 00:18:05;;;;;;;6.67;5.80;;;11.10;99.90;;;;;;4994250;28;20181;-62
2022/05/05 00:20:30;;;;;;;5.87;5.27;;;11.10;99.90;;;;;;4994376;28;20179;-62
2022/05/05 00:22:56;;;;;;;5.97;5.40;;;11.10;99.90;;;;;;5003890;28;20187;-62
2022/05/05 00:25:21;;;;;;;7.00;6.30;;;11.20;99.90;;;;;;5013931;28;20178;-63
2022/05/05 00:27:47;;;;;;;9.37;6.80;;;11.20;99.90;;;;;;5013806;28;20203;-63
2022/05/05 00:30:13;;;;;;;8.40;7.17;;;11.20;99.90;;;;;;5013791;28;20218;-63
2022/05/05 00:32:38;;;;;;;7.90;6.90;;;11.30;99.90;;;;;;5013446;28;20179;-62
2022/05/05 00:35:04;;;;;;;8.93;6.50;;;11.30;99.90;;;;;;5013456;28;20206;-63
2022/05/05 00:37:30;;;;;;;8.10;7.10;;;11.30;99.90;;;;;;5004533;28;20175;-63
2022/05/05 00:39:55;;;;;;;8.93;7.63;;;11.30;99.90;;;;;;4993830;28;20583;-63
2022/05/05 00:42:21;;;;;;;7.10;6.33;;;11.30;99.90;;;;;;4993806;28;20178;-63
2022/05/05 00:44:47;;;;;;;9.90;7.27;;;11.30;99.90;;;;;;5001552;28;20248;-62
2022/05/05 00:47:16;;;;;;;8.00;6.10;;;11.30;99.90;;;;;;5013721;28;20198;-63
2022/05/05 00:49:45;;;;;;;8.57;6.80;;;11.20;99.90;;;;;;5013735;28;20198;-63
2022/05/05 00:52:10;;;;;;;9.20;6.93;;;11.20;99.90;;;;;;5013334;28;20525;-63
2022/05/05 00:54:38;;;;;;;8.87;7.50;;;11.20;99.90;;;;;;5013298;28;20201;-62
2022/05/05 00:57:05;;;;;;;6.88;6.28;;;11.30;99.90;;;;;;5013577;28;20236;-62
2022/05/05 00:59:30;;;;;;;6.78;5.88;;;11.30;99.90;;;;;;5013214;28;20182;-62
2022/05/05 01:01:56;;;;;;;7.43;6.03;;;11.30;99.90;;;;;;5013381;28;20185;-62
2022/05/05 01:04:22;;;;;;;7.87;6.50;;;11.20;99.90;;;;;;5012938;28;20205;-62
2022/05/05 01:06:47;;;;;;;7.97;7.17;;;11.20;99.90;;;;;;5013334;28;20202;-61
2022/05/05 01:09:13;;;;;;;6.70;6.10;;;11.20;99.90;;;;;;4999446;28;20654;-61
2022/05/05 01:11:38;;;;;;;7.07;6.37;;;11.20;99.90;;;;;;4997740;28;20305;-62
2022/05/05 01:14:04;;;;;;;7.60;6.03;;;11.30;99.90;;;;;;4997413;28;20747;-63
2022/05/05 01:16:31;;;;;;;7.40;6.53;;;11.20;99.90;;;;;;4997638;28;20557;-62
2022/05/05 01:18:56;;;;;;;8.88;7.45;;;11.20;99.90;;;;;;4997351;28;20406;-62
2022/05/05 01:21:22;;;;;;;7.90;7.10;;;11.20;99.90;;;;;;4997431;28;20182;-62
2022/05/05 01:23:48;;;;;;;7.57;6.57;;;11.20;99.90;;;;;;4997109;28;20207;-62
2022/05/05 01:29:00;;;;;;;8.80;7.68;;;11.30;99.90;;;;;;4997562;28;20674;-63
2022/05/05 01:31:26;;;;;;;7.07;6.35;;;11.30;99.90;;;;;;4997386;28;20254;-62
2022/05/05 01:33:52;;;;;;;9.23;7.10;;;11.30;99.90;;;;;;4996826;28;20732;-63
2022/05/05 01:36:18;;;;;;;6.93;6.13;;;11.40;99.90;;;;;;4998465;28;20202;-62
2022/05/05 01:38:44;;;;;;;8.40;7.40;;;11.30;99.90;;;;;;4997135;28;20167;-62
2022/05/05 01:41:14;;;;;;;8.13;6.97;;;11.40;99.90;;;;;;4997185;28;20171;-62
2022/05/05 01:43:45;;;;;;;7.65;6.95;;;11.30;99.90;;;;;;4996638;28;20235;-63
2022/05/05 01:46:11;;;;;;;7.57;6.30;;;11.20;99.90;;;;;;4997187;28;20549;-62
2022/05/05 01:48:36;;;;;;;9.77;7.13;;;11.20;99.90;;;;;;4997123;28;20557;-63
2022/05/05 01:51:04;;;;;;;8.17;6.73;;;11.20;99.90;;;;;;4996872;28;20266;-62
2022/05/05 01:53:36;;;;;;;10.30;7.93;;;11.20;99.90;;;;;;4996535;28;20195;-63
2022/05/05 01:56:04;;;;;;;7.78;7.07;;;11.10;99.90;;;;;;4997141;28;20163;-63
2022/05/05 01:58:30;;;;;;;10.85;7.82;;;11.10;99.90;;;;;;4996934;28;20171;-63
2022/05/05 02:00:56;;;;;;;6.40;5.60;;;11.10;99.90;;;;;;4996684;28;20653;-63
2022/05/05 02:03:21;;;;;;;8.23;7.50;;;11.00;99.90;;;;;;4995185;28;20196;-63
2022/05/05 02:05:47;;;;;;;7.63;5.93;;;11.00;99.90;;;;;;5011121;28;20179;-63
2022/05/05 02:08:13;;;;;;;9.10;6.00;;;11.00;99.90;;;;;;5016444;28;20202;-63
2022/05/05 02:10:39;;;;;;;7.27;6.50;;;10.90;99.90;;;;;;5016094;28;20233;-62
2022/05/05 02:13:06;;;;;;;7.80;6.13;;;10.90;99.90;;;;;;5015381;28;20417;-62
2022/05/05 02:15:34;;;;;;;9.82;7.97;;;10.90;99.90;;;;;;5016733;28;20413;-62
2022/05/05 02:18:09;;;;;;;8.05;7.25;;;10.90;99.90;;;;;;5016226;28;20209;-62
2022/05/05 02:20:36;;;;;;;8.00;6.53;;;10.90;99.90;;;;;;5016184;28;20175;-62
2022/05/05 02:23:01;;;;;;;7.93;7.10;;;10.80;99.90;;;;;;5015597;28;20235;-62
2022/05/05 02:25:27;;;;;;;8.77;7.10;;;10.70;99.90;;;;;;5014893;28;20206;-62
2022/05/05 02:27:53;;;;;;;9.38;7.45;;;10.60;99.90;;;;;;5011564;28;20755;-62
2022/05/05 02:30:21;;;;;;;6.53;5.88;;;10.50;99.90;;;;;;4996237;28;20637;-62
2022/05/05 02:32:47;;;;;;;6.47;5.85;;;10.50;99.90;;;;;;4995863;28;20208;-62
2022/05/05 02:35:14;;;;;;;6.82;6.00;;;10.50;99.90;;;;;;4996045;28;20218;-62
2022/05/05 02:40:24;;;;;;;7.05;5.50;;;10.40;99.90;;;;;;5016111;28;20225;-63
2022/05/05 02:42:50;;;;;;;7.97;6.20;;;10.40;99.90;;;;;;5015550;28;20214;-62
2022/05/05 02:45:15;;;;;;;7.33;6.67;;;10.30;99.90;;;;;;5016092;28;20210;-63
2022/05/05 02:47:41;;;;;;;9.00;6.57;;;10.30;99.90;;;;;;5015496;28;20202;-62
2022/05/05 02:50:07;;;;;;;7.50;6.67;;;10.30;99.90;;;;;;5015706;28;20460;-62
2022/05/05 02:52:33;;;;;;;9.10;6.95;;;10.30;99.90;;;;;;5014853;28;20250;-63
2022/05/05 02:54:59;;;;;;;9.60;7.50;;;10.20;99.90;;;;;;5015316;28;20241;-62
2022/05/05 02:57:25;;;;;;;8.75;6.95;;;10.20;99.90;;;;;;5015338;28;20183;-62
2022/05/05 02:59:53;;;;;;;7.27;6.53;;;10.10;99.90;;;;;;5015965;28;20189;-62
2022/05/05 03:02:20;;;;;;;5.68;5.10;;;10.10;99.90;;;;;;5014709;28;20413;-63
2022/05/05 03:04:45;;;;;;;8.98;7.65;;;10.10;99.90;;;;;;5015211;28;20221;-62
2022/05/05 03:07:11;;;;;;;8.23;6.40;;;10.00;99.90;;;;;;5010050;28;20242;-62
2022/05/05 03:09:39;;;;;;;9.60;7.57;;;10.00;99.90;;;;;;4995808;28;20175;-62
2022/05/05 03:12:05;;;;;;;8.88;6.78;;;10.00;99.90;;;;;;4995328;28;20182;-62
2022/05/05 03:14:31;;;;;;;5.68;5.03;;;10.00;99.90;;;;;;4995040;28;20223;-62
2022/05/05 03:16:57;;;;;;;5.70;4.80;;;9.90;99.90;;;;;;4995548;28;20171;-62
2022/05/05 03:19:22;;;;;;;8.50;7.03;;;9.90;99.90;;;;;;5006442;28;20190;-62
2022/05/05 03:21:48;;;;;;;10.53;6.70;;;9.90;99.90;;;;;;5014864;28;20418;-62
2022/05/05 03:24:14;;;;;;;11.20;7.53;;;9.90;99.90;;;;;;5014328;28;20661;-62
2022/05/05 03:26:40;;;;;;;8.00;6.53;;;9.90;99.90;;;;;;5014911;28;20236;-62
2022/05/05 03:29:05;;;;;;;8.93;8.10;;;9.80;99.90;;;;;;5014856;28;20413;-62
2022/05/05 03:31:32;;;;;;;8.73;7.40;;;9.70;99.90;;;;;;5014047;28;20182;-62
2022/05/05 03:33:58;;;;;;;7.90;6.57;;;9.70;99.90;;;;;;5013669;28;20593;-63
2022/05/05 03:36:24;;;;;;;6.90;5.93;;;9.70;99.90;;;;;;5014722;28;20175;-62
2022/05/05 03:38:50;;;;;;;9.00;6.37;;;9.70;99.90;;;;;;5014475;28;20178;-63
2022/05/05 03:41:16;;;;;;;15.45;9.25;;;9.70;99.90;;;;;;5014452;28;20209;-63
2022/05/05 03:43:41;;;;;;;13.30;8.90;;;9.80;99.90;;;;;;5014045;28;20203;-63
2022/05/05 03:46:07;;;;;;;8.70;6.70;;;9.80;99.90;;;;;;5014516;28;20215;-62
2022/05/05 03:48:33;;;;;;;14.30;10.53;;;9.80;99.90;;;;;;5005156;28;20203;-63
2022/05/05 03:50:59;;;;;;;13.20;8.20;;;9.80;99.90;;;;;;4994696;28;20418;-62
2022/05/05 03:53:25;;;;;;;10.10;7.27;;;9.90;99.90;;;;;;4994189;28;20187;-62
2022/05/05 03:55:51;;;;;;;10.77;8.32;;;9.90;99.90;;;;;;4994863;28;20773;-62
2022/05/05 03:58:17;;;;;;;17.63;10.07;;;9.90;99.90;;;;;;5003738;28;20183;-63
2022/05/05 04:00:43;;;;;;;14.88;10.02;;;10.00;99.90;;;;;;5013123;28;20171;-62
2022/05/05 04:05:53;;;;;;;11.95;8.23;;;10.00;99.90;;;;;;5014330;28;20319;-62
2022/05/05 04:08:19;;;;;;;13.33;8.97;;;10.00;99.90;;;;;;5014131;28;20211;-63
2022/05/05 04:10:44;;;;;;;15.53;10.23;;;10.00;99.90;;;;;;5014035;28;20529;-62
2022/05/05 04:13:10;;;;;;;12.60;8.20;;;10.10;99.90;;;;;;5013401;28;20175;-62
2022/05/05 04:15:35;;;;;;;9.50;7.40;;;10.10;99.90;;;;;;5013988;28;20617;-63
2022/05/05 04:18:01;;;;;;;14.07;10.93;;;10.10;99.90;;;;;;5014024;28;20269;-63
2022/05/05 04:20:27;;;;;;;13.10;9.10;;;10.20;99.90;;;;;;5011061;28;20174;-62
2022/05/05 04:22:53;;;;;;;15.90;11.03;;;10.20;99.90;;;;;;4995537;28;20646;-62
2022/05/05 04:25:19;;;;;;;12.80;8.50;;;10.20;99.90;;;;;;4993860;28;20773;-62
2022/05/05 04:27:46;;;;;;;11.83;9.00;;;10.20;99.90;;;;;;4994451;28;20971;-62
2022/05/05 04:30:18;;;;;;;14.73;10.18;;;10.20;99.90;;;;;;4993974;28;20399;-62
2022/05/05 04:32:44;;;;;;;11.63;8.88;;;10.30;99.90;;;;;;4992361;28;20660;-62
2022/05/05 04:35:11;;;;;;;14.13;10.55;;;10.30;99.90;;;;;;4993670;28;20547;-63
2022/05/05 04:37:38;;;;;;;18.00;9.95;;;10.40;99.90;;;;;;4994110;28;20262;-62
2022/05/05 04:40:04;;;;;;;11.60;9.02;;;10.50;99.90;;;;;;4993395;28;20179;-62
2022/05/05 04:42:30;;;;;;;14.05;10.23;;;10.60;99.90;;;;;;5001149;28;20715;-62
2022/05/05 04:44:55;;;;;;;12.37;8.83;;;10.60;99.90;;;;;;5012186;28;20198;-62
2022/05/05 04:47:21;;;;;;;16.40;12.10;;;10.70;99.90;;;;;;5013234;28;20253;-64
2022/05/05 04:49:47;;;;;;;11.77;9.30;;;10.90;99.90;;;;;;5013317;28;20170;-64
2022/05/05 04:52:12;;;;;;;8.87;6.60;;;10.90;99.90;;;;;;4993683;28;20172;-64
2022/05/05 04:54:38;;;;;;;18.93;10.27;;;11.00;99.90;;;;;;4993758;28;20200;-62
2022/05/05 04:57:04;;;;;;;11.70;9.10;;;11.00;99.90;;;;;;4993914;28;20187;-61
2022/05/05 04:59:29;;;;;;;14.75;10.98;;;11.10;99.90;;;;;;4993918;28;20249;-61
2022/05/05 05:01:55;;;;;;;9.67;8.47;;;11.20;99.90;;;;;;4993420;28;20643;-62
2022/05/05 05:04:21;;;;;;;11.00;9.50;;;11.20;99.90;;;;;;4993391;28;20196;-62
2022/05/05 05:06:46;;;;;;;13.27;8.90;;;11.30;99.90;;;;;;4994847;28;20274;-62
2022/05/05 05:09:12;;;;;;;16.10;10.30;;;11.30;99.90;;;;;;4993608;28;20635;-62
2022/05/05 05:11:38;;;;;;;14.63;9.60;;;11.30;99.90;;;;;;4998808;28;20179;-62
2022/05/05 05:14:03;;;;;;;10.63;8.40;;;11.30;99.90;;;;;;5008437;28;20191;-62
2022/05/05 05:16:29;;;;;;;12.50;9.30;;;11.30;99.90;;;;;;4997180;28;20176;-62
2022/05/05 05:18:55;;;;;;;10.53;8.23;;;11.30;99.90;;;;;;4992077;28;20188;-61
2022/05/05 05:21:21;;;;;;;11.73;9.27;;;11.30;99.90;;;;;;4993263;28;20160;-61
2022/05/05 05:23:46;;;;;;;12.52;9.90;;;11.40;99.90;;;;;;4992736;28;20686;-61
2022/05/05 05:26:13;;;;;;;16.10;9.23;;;11.40;99.90;;;;;;4999437;28;20178;-62
2022/05/05 05:28:40;;;;;;;11.32;10.10;;;11.50;99.90;;;;;;4994829;28;20725;-61
2022/05/05 05:31:05;;;;;;;11.30;9.75;;;11.50;99.90;;;;;;4991202;28;20689;-62
2022/05/05 05:33:31;;;;;;;16.93;12.43;;;11.50;99.90;;;;;;4991340;28;20196;-62
2022/05/05 05:35:57;;;;;;;9.40;8.40;;;11.60;99.90;;;;;;4995134;28;20186;-62
2022/05/05 05:38:22;;;;;;;13.37;8.73;;;11.60;99.90;;;;;;4997143;28;20172;-61
2022/05/05 05:40:48;;;;;;;11.40;9.07;;;11.60;99.90;;;;;;5010723;28;20183;-64
2022/05/05 05:43:14;;;;;;;10.00;7.47;;;11.70;99.90;;;;;;4994030;28;20628;-61
2022/05/05 05:45:40;;;;;;;10.40;9.30;;;11.70;99.90;;;;;;4997723;28;20196;-64
2022/05/05 05:48:06;;;;;;;12.67;10.47;;;11.60;99.90;;;;;;4994102;28;20478;-62
2022/05/05 05:50:32;;;;;;;10.57;7.80;;;11.60;99.90;;;;;;5001028;28;20198;-62
2022/05/05 05:52:59;;;;;;;10.53;9.43;;;11.70;99.90;;;;;;5000912;28;20256;-62
2022/05/05 05:55:24;;;;;;;11.23;8.93;;;11.70;99.90;;;;;;4997343;28;20433;-62
2022/05/05 05:57:50;;;;;;;10.60;7.27;;;11.70;99.90;;;;;;4997701;28;20188;-62
2022/05/05 06:00:16;;;;;;;11.60;8.43;;;11.70;99.90;;;;;;4999389;28;20176;-62
2022/05/05 06:05:26;;;;;;;12.13;8.85;;;11.90;99.90;;;;;;5003908;28;20920;-62
2022/05/05 06:08:03;;;;;;;7.85;7.13;;;12.00;99.90;;;;;;4996545;28;20589;-62
2022/05/05 06:10:29;;;;;;;11.17;8.70;;;12.10;99.90;;;;;;4996515;28;20176;-62
2022/05/05 06:12:55;;;;;;;9.40;8.00;;;12.20;99.90;;;;;;5001570;28;20816;-61
2022/05/05 06:15:24;;;;;;;9.50;8.18;;;12.30;99.90;;;;;;5001034;28;20413;-61
2022/05/05 06:17:50;;;;;;;10.10;7.90;;;12.30;99.90;;;;;;5001234;28;20192;-61
2022/05/05 06:20:17;;;;;;;9.95;8.40;;;12.40;99.90;;;;;;5009571;28;20444;-61
2022/05/05 06:22:42;;;;;;;11.30;8.10;;;12.50;99.90;;;;;;4996543;28;20185;-62
2022/05/05 06:25:11;;;;;;;9.97;8.63;;;12.50;99.90;;;;;;4997056;28;20197;-62
2022/05/05 06:27:37;;;;;;;8.50;7.00;;;12.50;99.90;;;;;;5014179;28;20210;-63
2022/05/05 06:30:05;;;;;;;10.37;8.03;;;12.50;99.90;;;;;;5012558;28;20466;-63
2022/05/05 06:32:31;;;;;;;11.00;8.77;;;12.60;99.90;;;;;;5006952;28;21062;-63
2022/05/05 06:34:57;;;;;;;7.13;6.37;;;12.60;99.90;;;;;;5000591;28;20435;-63
2022/05/05 06:37:25;;;;;;;8.60;7.50;;;12.80;99.90;;;;;;4999704;28;20174;-63
2022/05/05 06:39:51;;;;;;;8.80;6.93;;;12.90;99.90;;;;;;5007853;28;20596;-64
2022/05/05 06:42:17;;;;;;;10.03;7.23;;;12.90;99.90;;;;;;5005658;28;20528;-63
2022/05/05 06:44:43;;;;;;;8.23;7.53;;;13.00;99.90;;;;;;4996860;28;20457;-63
2022/05/05 06:47:08;;;;;;;9.27;8.43;;;13.10;99.90;;;;;;4996865;28;20461;-63
2022/05/05 06:49:35;;;;;;;9.40;7.00;;;13.20;99.90;;;;;;5007255;28;20200;-63
2022/05/05 06:52:00;;;;;;;8.50;6.93;;;13.30;99.90;;;;;;4996879;28;20653;-63
2022/05/05 06:54:27;;;;;;;9.50;7.97;;;13.40;99.90;;;;;;5005888;28;20508;-63
2022/05/05 06:56:54;;;;;;;9.03;7.90;;;13.60;99.90;;;;;;5008124;28;20432;-62
2022/05/05 06:59:19;;;;;;;8.53;7.40;;;13.70;99.90;;;;;;5002811;28;20460;-62
2022/05/05 07:01:56;;;;;;;8.90;7.30;;;13.80;99.90;;;;;;5000596;28;20493;-62
2022/05/05 07:07:13;;;;;;;8.43;7.53;;;14.00;99.90;;;;;;5007849;28;20978;-63
2022/05/05 07:12:30;;;;;;;9.00;8.10;;;14.40;99.90;;;;;;4995416;28;20437;-63
2022/05/05 07:14:56;;;;;;;7.40;6.00;;;14.50;99.90;;;;;;4994912;28;20425;-63
2022/05/05 07:17:23;;;;;;;9.07;6.50;;;14.80;99.90;;;;;;4999870;28;20788;-63
2022/05/05 07:19:49;;;;;;;9.07;7.13;;;15.00;99.90;;;;;;5004862;28;20507;-62
2022/05/05 07:22:15;;;;;;;6.50;5.90;;;15.10;99.90;;;;;;5013241;28;20457;-62
2022/05/05 07:24:41;;;;;;;6.43;5.73;;;15.20;99.90;;;;;;5003160;28;20473;-63
2022/05/05 07:27:06;;;;;;;8.57;6.80;;;15.40;99.90;;;;;;4996856;28;20216;-62
2022/05/05 07:29:33;;;;;;;6.07;5.50;;;15.40;99.90;;;;;;5005860;28;20266;-63
2022/05/05 07:31:59;;;;;;;7.10;6.50;;;15.50;99.90;;;;;;5011387;28;20194;-62
2022/05/05 07:34:24;;;;;;;6.60;5.90;;;15.50;99.90;;;;;;5001251;28;20466;-63
2022/05/05 07:36:50;;;;;;;6.23;5.63;;;15.50;99.90;;;;;;4996896;28;20590;-62
2022/05/05 07:39:16;;;;;;;6.50;5.90;;;15.50;99.90;;;;;;4999566;28;20232;-63
2022/05/05 07:41:42;;;;;;;7.83;6.33;;;15.60;99.90;;;;;;4997265;28;20429;-64
2022/05/05 07:44:08;;;;;;;5.70;5.20;;;15.70;99.90;;;;;;4994648;28;20939;-65
2022/05/05 07:46:35;;;;;;;6.73;5.93;;;16.00;99.90;;;;;;4998793;28;20464;-63
2022/05/05 07:49:05;;;;;;;5.20;4.70;;;16.20;99.90;;;;;;4998169;28;20461;-62
2022/05/05 07:51:32;;;;;;;6.57;5.97;;;16.50;99.90;;;;;;4998461;28;20476;-63
2022/05/05 07:56:43;;;;;;;8.63;6.90;;;16.70;99.90;;;;;;4994817;28;20517;-63
2022/05/05 07:59:09;;;;;;;6.60;5.77;;;16.70;99.90;;;;;;5009857;28;20971;-62
2022/05/05 08:01:35;;;;;;;5.93;5.10;;;16.70;99.90;;;;;;5001667;28;20425;-63
2022/05/05 08:04:01;;;;;;;5.10;4.40;;;16.60;99.90;;;;;;4998586;28;20428;-62
2022/05/05 08:06:26;;;;;;;7.63;6.40;;;16.50;99.90;;;;;;5012010;28;20189;-62
2022/05/05 08:08:52;;;;;;;6.73;6.03;;;16.40;99.90;;;;;;5014136;28;20215;-62
2022/05/05 08:11:18;;;;;;;7.47;5.87;;;16.30;99.90;;;;;;4997796;28;20186;-63
2022/05/05 08:13:44;;;;;;;6.27;5.10;;;16.20;99.90;;;;;;4993683;28;20202;-62
2022/05/05 08:16:10;;;;;;;5.83;5.27;;;16.20;99.90;;;;;;5008013;28;20178;-63
2022/05/05 08:21:11;;;;;;;5.30;4.80;;;16.00;99.90;;;;;;6121260;22;20436;-62
2022/05/05 08:23:37;;;;;;;7.73;7.03;;;15.80;99.90;;;;;;5031667;28;20954;-62
2022/05/05 08:28:48;;;;;;;8.93;5.47;;;15.80;99.90;;;;;;5033687;28;20488;-64
2022/05/05 08:31:14;;;;;;;6.23;5.63;;;15.90;99.90;;;;;;5035825;28;20420;-63
2022/05/05 08:33:39;;;;;;;6.57;5.93;;;15.80;99.90;;;;;;5053298;28;20413;-66
2022/05/05 08:36:06;;;;;;;7.57;5.80;;;15.90;99.90;;;;;;5053480;28;20489;-63
2022/05/05 08:38:33;;;;;;;7.20;5.60;;;15.80;99.90;;;;;;5033867;28;20171;-63
2022/05/05 08:40:59;;;;;;;6.93;5.90;;;15.90;99.90;;;;;;5032642;28;20451;-63
2022/05/05 08:43:25;;;;;;;6.60;5.83;;;15.90;99.90;;;;;;5051386;28;20455;-64
2022/05/05 08:48:27;;;;;;;7.00;6.40;;;16.00;99.90;;;;;;5190816;22;21040;-64
2022/05/05 08:50:59;;;;;;;7.60;5.63;;;16.00;99.90;;;;;;5031511;28;20443;-63
2022/05/05 08:53:35;;;;;;;6.50;5.90;;;16.10;99.90;;;;;;5032784;28;20447;-61
2022/05/05 08:56:04;;;;;;;7.50;6.80;;;16.20;99.90;;;;;;5020436;28;20984;-61
2022/05/05 08:58:32;;;;;;;6.30;5.70;;;16.30;99.90;;;;;;5038047;28;20488;-61
2022/05/05 09:00:58;;;;;;;8.83;7.87;;;16.40;99.90;;;;;;5048494;28;20415;-62
2022/05/05 09:03:25;;;;;;;7.27;6.50;;;16.60;99.90;;;;;;5052847;28;20478;-65
2022/05/05 09:05:55;;;;;;;6.93;6.23;;;16.60;99.90;;;;;;5036816;28;20419;-65
2022/05/05 09:08:24;;;;;;;8.80;6.90;;;16.60;99.90;;;;;;5052642;28;21011;-64
2022/05/05 09:10:50;;;;;;;8.27;7.30;;;16.70;99.90;;;;;;5051352;28;20429;-63
2022/05/05 09:13:27;;;;;;;8.13;7.37;;;16.90;99.90;;;;;;5053023;28;20495;-63
2022/05/05 09:15:53;;;;;;;11.33;7.10;;;16.90;99.90;;;;;;5036780;28;20416;-62
2022/05/05 09:18:30;;;;;;;9.50;7.87;;;17.00;99.90;;;;;;5037401;28;20532;-64
2022/05/05 09:20:57;;;;;;;8.73;7.70;;;17.10;99.90;;;;;;5041416;28;20420;-64
2022/05/05 09:23:32;;;;;;;7.20;6.50;;;17.20;99.90;;;;;;5032623;28;20412;-64
2022/05/05 09:25:59;;;;;;;10.70;8.33;;;17.30;99.90;;;;;;5032161;28;20751;-64
2022/05/05 09:28:35;;;;;;;7.23;6.53;;;17.40;99.90;;;;;;5045374;28;20478;-63
2022/05/05 09:31:08;;;;;;;13.27;9.03;;;17.50;99.90;;;;;;5056343;28;20972;-64
2022/05/05 09:33:34;;;;;;;9.03;7.40;;;17.60;99.90;;;;;;5043873;28;20452;-64
2022/05/05 09:36:04;;;;;;;8.20;7.40;;;17.60;99.90;;;;;;5036186;28;20787;-65
2022/05/05 09:38:50;;;;;;;9.57;8.40;;;17.70;99.90;;;;;;5036621;28;20857;-63
2022/05/05 09:41:16;;;;;;;9.63;8.27;;;17.80;99.90;;;;;;5035076;28;20918;-64
2022/05/05 09:43:42;;;;;;;9.20;8.30;;;17.90;99.90;;;;;;5048849;28;20395;-63
2022/05/05 09:46:23;;;;;;;8.43;7.53;;;17.90;99.90;;;;;;5056009;28;20892;-64
2022/05/05 09:48:52;;;;;;;7.37;6.50;;;18.00;99.90;;;;;;5055998;28;20197;-63
2022/05/05 09:51:18;;;;;;;8.53;7.70;;;18.20;99.90;;;;;;5056516;28;20410;-64
2022/05/05 09:59:25;;;;;;;7.70;7.00;;;18.70;99.90;;;;;;5036621;28;20416;-64
2022/05/05 10:01:53;;;;;;;8.90;7.90;;;19.00;99.90;;;;;;5036245;28;20454;-64
2022/05/05 10:04:23;;;;;;;8.50;7.60;;;19.20;99.90;;;;;;5052172;28;20783;-63
2022/05/05 10:06:50;;;;;;;10.17;7.60;;;19.30;99.90;;;;;;5055461;28;20406;-64
2022/05/05 10:09:19;;;;;;;8.83;7.50;;;19.30;99.90;;;;;;5055820;28;20395;-64
2022/05/05 10:11:45;;;;;;;8.67;7.43;;;19.20;99.90;;;;;;5055638;28;20404;-64
2022/05/05 10:14:13;;;;;;;8.07;7.27;;;18.80;99.90;;;;;;5040460;28;20504;-64
2022/05/05 10:16:43;;;;;;;8.60;7.70;;;18.60;99.90;;;;;;5035376;28;20515;-64
2022/05/05 10:19:09;;;;;;;9.50;7.93;;;18.60;99.90;;;;;;5035668;28;20452;-63
2022/05/05 10:21:39;;;;;;;8.33;6.90;;;18.60;99.90;;;;;;5035708;28;20463;-63
2022/05/05 10:24:10;;;;;;;10.57;8.57;;;18.60;99.90;;;;;;5049188;28;20478;-64
2022/05/05 10:26:37;;;;;;;8.87;7.97;;;18.60;99.90;;;;;;5053753;28;20456;-63
2022/05/05 10:29:03;;;;;;;8.07;6.60;;;18.50;99.90;;;;;;5055400;28;20486;-64
2022/05/05 10:31:32;;;;;;;11.30;7.57;;;18.50;99.90;;;;;;5055844;28;20515;-63
2022/05/05 10:34:07;;;;;;;8.57;7.73;;;18.50;99.90;;;;;;5042858;28;20471;-65
2022/05/05 10:36:34;;;;;;;7.83;7.03;;;18.50;99.90;;;;;;5034950;28;20523;-63
2022/05/05 10:39:22;;;;;;;9.63;8.63;;;18.60;99.90;;;;;;5035205;28;20492;-64
2022/05/05 10:41:51;;;;;;;10.87;8.73;;;18.40;99.90;;;;;;5035565;28;20737;-64
2022/05/05 10:44:16;;;;;;;9.03;8.10;;;18.30;99.90;;;;;;5049599;28;20451;-64
2022/05/05 10:47:02;;;;;;;10.70;9.43;;;18.30;99.90;;;;;;5054602;28;20829;-63
2022/05/05 10:49:30;;;;;;;10.23;9.20;;;18.30;99.90;;;;;;5055389;28;20542;-63
2022/05/05 10:52:08;;;;;;;11.00;9.90;;;18.20;99.90;;;;;;5046944;28;20417;-63
2022/05/05 10:54:34;;;;;;;14.20;10.80;;;18.10;99.90;;;;;;5035384;28;20723;-63
2022/05/05 10:57:25;;;;;;;10.53;8.90;;;18.00;99.90;;;;;;5034738;28;20427;-63
2022/05/05 11:00:09;;;;;;;13.43;10.50;;;18.00;99.90;;;;;;5034719;28;20405;-64
2022/05/05 11:02:36;;;;;;;16.43;9.60;;;18.00;99.90;;;;;;5047419;28;20390;-63
2022/05/05 11:05:29;;;;;;;11.07;9.93;;;17.90;99.90;;;;;;5054852;28;20510;-63
2022/05/05 11:08:17;;;;;;;10.03;9.00;;;17.80;99.90;;;;;;5054484;28;20550;-63
2022/05/05 11:13:48;;;;;;;9.90;9.00;;;17.60;99.90;;;;;;5035351;28;20408;-63
2022/05/05 11:22:08;;;;;;;11.27;9.23;;;17.80;99.90;;;;;;5042182;28;20394;-64
2022/05/05 11:24:33;;;;;;;10.43;8.40;;;17.90;99.90;;;;;;5041067;28;20521;-64
2022/05/05 11:27:00;;;;;;;11.50;10.17;;;18.00;99.90;;;;;;5033912;28;20649;-64
2022/05/05 11:29:32;;;;;;;12.20;10.10;;;17.90;99.90;;;;;;5034901;28;20174;-64
2022/05/05 11:32:00;;;;;;;14.23;9.73;;;17.80;99.90;;;;;;5034463;28;20435;-64
2022/05/05 11:34:34;;;;;;;11.43;9.57;;;17.80;99.90;;;;;;5045085;28;20833;-64
2022/05/05 11:37:00;;;;;;;9.97;8.97;;;17.60;99.90;;;;;;5053801;28;20931;-65
2022/05/05 11:39:30;;;;;;;12.97;11.50;;;17.60;99.90;;;;;;5053156;28;20451;-64
2022/05/05 11:41:59;;;;;;;13.13;11.77;;;17.50;99.90;;;;;;5052873;28;20743;-64
2022/05/05 11:44:26;;;;;;;11.43;10.23;;;17.40;99.90;;;;;;5041478;28;20461;-64
2022/05/05 11:46:53;;;;;;;11.90;10.17;;;17.40;99.90;;;;;;5033537;28;20435;-64
2022/05/05 11:49:19;;;;;;;11.77;10.60;;;17.40;99.90;;;;;;5032598;28;20435;-62
2022/05/05 11:51:45;;;;;;;13.97;10.83;;;17.40;99.90;;;;;;5044504;28;20420;-64
2022/05/05 11:54:14;;;;;;;11.57;10.20;;;17.30;99.90;;;;;;5053301;28;20477;-63
2022/05/05 11:56:46;;;;;;;11.83;10.17;;;17.30;99.90;;;;;;5043220;28;20563;-63
2022/05/05 12:02:10;;;;;;;14.07;11.67;;;17.20;99.90;;;;;;5047736;28;20791;-63
2022/05/05 12:04:42;;;;;;;13.10;10.90;;;17.20;99.90;;;;;;5033959;28;20433;-63
2022/05/05 12:07:10;;;;;;;10.90;8.87;;;17.20;99.90;;;;;;5039532;28;20460;-63
2022/05/05 12:09:37;;;;;;;12.83;11.33;;;17.20;99.90;;;;;;5053613;28;20388;-65
2022/05/05 12:12:11;;;;;;;15.37;11.50;;;17.10;99.90;;;;;;5052827;28;20739;-64
2022/05/05 12:14:42;;;;;;;12.73;10.60;;;17.10;99.90;;;;;;5053596;28;20415;-64
2022/05/05 12:17:12;;;;;;;13.90;12.30;;;17.10;99.90;;;;;;5047186;28;20473;-64
2022/05/05 12:19:55;;;;;;;13.23;10.30;;;17.10;99.90;;;;;;5052786;28;20438;-63
2022/05/05 12:22:41;;;;;;;13.53;11.73;;;17.10;99.90;;;;;;5046409;28;20423;-63
2022/05/05 12:25:13;;;;;;;11.47;9.37;;;17.20;99.90;;;;;;5033617;28;20457;-63
2022/05/05 12:27:39;;;;;;;13.47;12.00;;;17.40;99.90;;;;;;5040648;28;20553;-63
2022/05/05 12:30:05;;;;;;;12.13;10.20;;;17.50;99.90;;;;;;5043316;28;20766;-64
2022/05/05 12:32:32;;;;;;;15.63;10.20;;;17.70;99.90;;;;;;5046638;28;20394;-62
2022/05/05 12:35:06;;;;;;;13.53;9.50;;;18.10;99.90;;;;;;5053458;28;20411;-62
2022/05/05 12:37:32;;;;;;;11.90;10.30;;;18.50;99.90;;;;;;5039719;28;20451;-62
2022/05/05 12:40:03;;;;;;;16.53;11.50;;;18.90;99.90;;;;;;5042265;28;20420;-62
2022/05/05 12:42:48;;;;;;;15.87;11.77;;;19.20;99.90;;;;;;5041298;28;20189;-64
2022/05/05 12:45:18;;;;;;;12.30;10.80;;;19.30;99.90;;;;;;5053418;28;20423;-63
2022/05/05 12:47:47;;;;;;;13.57;11.40;;;19.50;99.90;;;;;;5049494;28;20478;-63
2022/05/05 12:50:32;;;;;;;13.13;10.40;;;19.70;99.90;;;;;;5032993;28;20410;-64
2022/05/05 13:01:43;;;;;;;11.87;10.00;;;20.00;99.90;;;;;;5053464;28;20521;-63
2022/05/05 13:04:12;;;;;;;12.57;9.60;;;20.00;99.90;;;;;;5054649;28;20490;-63
2022/05/05 13:06:39;;;;;;;12.83;10.23;;;19.90;99.90;;;;;;5056720;28;20489;-64
2022/05/05 13:09:08;;;;;;;17.23;10.27;;;19.90;99.90;;;;;;5042951;28;20464;-64
2022/05/05 13:11:41;;;;;;;13.63;9.90;;;19.60;99.90;;;;;;5037158;28;20413;-63
2022/05/05 13:14:07;;;;;;;12.83;10.50;;;19.60;99.90;;;;;;5035984;28;20416;-62
2022/05/05 13:16:34;;;;;;;12.97;10.63;;;19.50;99.90;;;;;;5036547;28;20988;-64
2022/05/05 13:19:04;;;;;;;11.80;8.63;;;19.60;99.90;;;;;;5048608;28;20446;-63
2022/05/05 13:21:32;;;;;;;12.40;10.20;;;19.70;99.90;;;;;;5056516;28;20499;-63
2022/05/05 13:23:58;;;;;;;12.73;10.23;;;19.60;99.90;;;;;;5055384;28;20403;-64
2022/05/05 13:26:23;;;;;;;12.83;9.60;;;19.70;99.90;;;;;;5056350;28;20435;-63
2022/05/05 13:28:49;;;;;;;15.93;11.23;;;19.80;99.90;;;;;;5056530;28;20251;-63
2022/05/05 13:31:15;;;;;;;12.07;9.93;;;19.70;99.90;;;;;;5056438;28;20408;-63
2022/05/05 13:33:41;;;;;;;12.80;10.20;;;19.60;99.90;;;;;;5044700;28;20179;-64
2022/05/05 13:36:19;;;;;;;14.60;11.03;;;19.30;99.90;;;;;;5036193;28;20205;-64
2022/05/05 13:38:45;;;;;;;12.13;9.90;;;19.30;99.90;;;;;;5035154;28;20409;-64